Change the Weather History Date:

Thursday, November 14, 2013

  Actual Average Record
Temperature  
Mean Temperature 42 °F -  
Max Temperature 46 °F 44 °F 57 °F (2006)
Min Temperature 39 °F 35 °F 30 °F (1996)
Degree Days  
Heating Degree Days 22    
Moisture  
Dew Point 43 °F    
Average Humidity 92    
Maximum Humidity 100    
Minimum Humidity 87    
Precipitation  
Precipitation 0.00 in - - ()
Sea Level Pressure  
Sea Level Pressure 30.09 in    
Wind  
Wind Speed 8 mph ()    
Max Wind Speed 13 mph    
Max Gust Speed -    
Visibility 5.4 miles    
Events Rain    
Averages and records for this station are not official NWS values.
T = Trace of Precipitation, MM = Missing Value Source: Averaged Metar Reports

Daily Weather History Graph

Daily Weather History Graph

Search for Another Location

Airport or City:

Trip Planner

Search our weather history database for the weather conditions in past years. The results will help you decide how hot, cold, wet, or windy it might be!

Date:

Astronomy

Nov. 14, 2013 Rise Set
Actual Time 7:56 AM CET 4:51 PM CET
Civil Twilight 7:19 AM CET 5:28 PM CET
Nautical Twilight 6:39 AM CET 6:09 PM CET
Astronomical Twilight 5:59 AM CET 6:48 PM CET
Moon 3:22 PM CET (11/14) 4:14 AM CET (11/14)
Length of Visible Light 10h 08m
Length of Day
8h 55m
Waxing Gibbous, 90% of the Moon is Illuminated
Nov 14
Waxing Gibbous
Nov 17
Full
Nov 25
Last Quarter
Dec 3
New
Dec 9
First Quarter

Hourly Weather History & Observations

Time (CET) Temp. Windchill Dew Point Humidity Pressure Visibility Wind Dir Wind Speed Gust Speed Precip Events Conditions
12:25 AM 41.0 °F 37.1 °F 39.2 °F 93% 30.30 in 6.2 mi South 5.8 mph - N/A   Mostly Cloudy
12:55 AM 41.0 °F 37.1 °F 39.2 °F 93% 30.30 in 6.2 mi SSW 5.8 mph - N/A   Mostly Cloudy
1:25 AM 39.2 °F 35.0 °F 37.4 °F 93% 30.27 in 6.2 mi South 5.8 mph - N/A   Mostly Cloudy
1:55 AM 41.0 °F 35.8 °F 39.2 °F 93% 30.27 in 6.2 mi SSW 8.1 mph - N/A   Overcast
2:25 AM 41.0 °F 35.8 °F 39.2 °F 93% 30.24 in 6.2 mi SSW 8.1 mph - N/A   Mostly Cloudy
2:55 AM 41.0 °F 36.4 °F 39.2 °F 93% 30.24 in 6.2 mi SSW 6.9 mph - N/A   Mostly Cloudy
3:25 AM 39.2 °F 34.2 °F 37.4 °F 93% 30.21 in 6.2 mi SSW 6.9 mph - N/A   Overcast
3:55 AM 41.0 °F 35.2 °F 39.2 °F 93% 30.21 in 6.2 mi South 9.2 mph - N/A   Overcast
4:25 AM 41.0 °F 35.8 °F 39.2 °F 93% 30.18 in 6.2 mi SSW 8.1 mph - N/A   Overcast
4:55 AM 41.0 °F 35.8 °F 39.2 °F 93% 30.15 in 6.2 mi South 8.1 mph - N/A   Overcast
5:25 AM 41.0 °F 35.2 °F 39.2 °F 93% 30.15 in 6.2 mi South 9.2 mph - N/A   Overcast
5:55 AM 41.0 °F 34.7 °F 39.2 °F 93% 30.12 in 6.2 mi South 10.4 mph - N/A   Mostly Cloudy
6:25 AM 41.0 °F 35.2 °F 39.2 °F 93% 30.12 in 6.2 mi SSW 9.2 mph - N/A   Overcast
6:55 AM 42.8 °F 37.0 °F 39.2 °F 87% 30.09 in 6.2 mi SSW 10.4 mph - N/A   Overcast
7:25 AM 42.8 °F 37.0 °F 39.2 °F 87% 30.09 in 6.2 mi SSW 10.4 mph - N/A   Overcast
7:55 AM 42.8 °F 37.0 °F 39.2 °F 87% 30.09 in 6.2 mi SSW 10.4 mph - N/A   Overcast
8:25 AM 42.8 °F 36.2 °F 39.2 °F 87% 30.06 in 6.2 mi SSW 12.7 mph - N/A   Overcast
8:28 AM 42.8 °F 36.2 °F 39.2 °F 87% 30.06 in 6.2 mi SSW 12.7 mph - N/A   Overcast
8:55 AM 42.8 °F 36.6 °F 39.2 °F 87% 30.06 in 6.2 mi SSW 11.5 mph - N/A   Overcast
8:58 AM 42.8 °F 37.0 °F 39.2 °F 87% 30.06 in 6.2 mi SSW 10.4 mph - N/A   Overcast
9:10 AM 42.8 °F 36.2 °F 39.2 °F 87% 30.06 in 6.2 mi SSW 12.7 mph - N/A   Overcast
9:25 AM 42.8 °F 36.6 °F 39.2 °F 87% 30.06 in 6.2 mi SSW 11.5 mph - N/A   Mostly Cloudy
9:34 AM 42.8 °F 36.2 °F 39.2 °F 87% 30.04 in 6.2 mi SSW 12.7 mph - N/A   Overcast
9:47 AM 42.8 °F 36.6 °F 39.2 °F 87% 30.04 in 6.2 mi SSW 11.5 mph - N/A   Overcast
9:55 AM 42.8 °F 36.6 °F 39.2 °F 87% 30.04 in 6.2 mi SSW 11.5 mph - N/A   Mostly Cloudy
9:59 AM 42.8 °F 36.6 °F 39.2 °F 87% 30.04 in 6.2 mi SSW 11.5 mph - N/A   Mostly Cloudy
10:13 AM 42.8 °F 37.0 °F 41.0 °F 93% 30.04 in 6.2 mi SSW 10.4 mph - N/A   Mostly Cloudy
10:17 AM 42.8 °F 36.6 °F 41.0 °F 93% 30.04 in 6.2 mi SSW 11.5 mph - N/A   Mostly Cloudy
10:25 AM 42.8 °F 37.0 °F 41.0 °F 93% 30.04 in 6.2 mi SSW 10.4 mph - N/A   Overcast
10:55 AM 42.8 °F 37.5 °F 41.0 °F 93% 30.04 in 6.2 mi SSW 9.2 mph - N/A   Overcast
11:00 AM 44.6 °F 39.7 °F 41.0 °F 87% 30.04 in 3.7 mi SW 9.2 mph - N/A Rain Light Rain
11:10 AM 44.6 °F 40.2 °F 41.0 °F 87% 30.04 in 5.6 mi SW 8.1 mph - N/A   Overcast
11:17 AM 44.6 °F 40.2 °F 41.0 °F 87% 30.04 in - SW 8.1 mph - N/A   Overcast
11:25 AM 44.6 °F 40.2 °F 41.0 °F 87% 30.04 in - SW 8.1 mph - N/A   Drizzle
11:38 AM 44.6 °F 40.2 °F 42.8 °F 93% 30.04 in 3.1 mi SSW 8.1 mph - N/A Rain Rain
11:44 AM 44.6 °F 40.2 °F 42.8 °F 93% 30.04 in 5.6 mi SSW 8.1 mph - N/A   Overcast
11:55 AM 44.6 °F 39.7 °F 42.8 °F 93% 30.04 in 5.6 mi SSW 9.2 mph - N/A   Overcast
12:14 PM 44.6 °F 40.7 °F 42.8 °F 93% 30.04 in 3.7 mi SW 6.9 mph - N/A Rain Rain
12:25 PM 44.6 °F 40.2 °F 42.8 °F 93% 30.04 in 3.7 mi SW 8.1 mph - N/A Rain Light Rain
12:31 PM 44.6 °F 40.2 °F 42.8 °F 93% 30.04 in 3.7 mi SW 8.1 mph - N/A Rain Light Rain
12:41 PM 44.6 °F 40.7 °F 42.8 °F 93% 30.04 in 3.1 mi SW 6.9 mph - N/A Rain Rain Showers
12:45 PM 44.6 °F 40.7 °F 42.8 °F 93% 30.04 in 3.1 mi SW 6.9 mph - N/A Rain Rain Showers
12:49 PM 44.6 °F 40.7 °F 42.8 °F 93% 30.04 in 3.1 mi SW 6.9 mph - N/A Rain Rain
12:55 PM 44.6 °F 40.7 °F 42.8 °F 93% 30.04 in - SW 6.9 mph - N/A Rain Rain
12:59 PM 44.6 °F 40.7 °F 42.8 °F 93% 30.04 in 3.1 mi SW 6.9 mph - N/A Rain Rain Showers
1:03 PM 44.6 °F 40.7 °F 42.8 °F 93% 30.04 in 3.1 mi SW 6.9 mph - N/A Rain Light Rain Showers
1:07 PM 44.6 °F 40.7 °F 42.8 °F 93% 30.04 in - SW 6.9 mph - N/A Rain Rain Showers
1:15 PM 44.6 °F 41.4 °F 42.8 °F 93% 30.04 in 2.8 mi SSW 5.8 mph - N/A Rain Light Rain Showers
1:25 PM 44.6 °F 42.2 °F 42.8 °F 93% 30.04 in 3.1 mi WSW 4.6 mph - N/A Rain Light Rain
1:36 PM 44.6 °F 41.4 °F 42.8 °F 93% 30.04 in 3.1 mi SSW 5.8 mph - N/A   Light Drizzle
1:40 PM 44.6 °F 41.4 °F 42.8 °F 93% 30.04 in 3.1 mi SW 5.8 mph - N/A   Light Drizzle
1:44 PM 44.6 °F 41.4 °F 44.6 °F 100% 30.04 in 3.1 mi SSW 5.8 mph - N/A   Overcast
1:55 PM 44.6 °F 42.2 °F 44.6 °F 100% 30.04 in 3.1 mi SSW 4.6 mph - N/A   Overcast
2:25 PM 44.6 °F 42.2 °F 44.6 °F 100% 30.04 in - SW 4.6 mph - N/A   Mostly Cloudy
2:29 PM 46.4 °F 44.3 °F 44.6 °F 93% 30.04 in 2.2 mi SW 4.6 mph - N/A   Drizzle
2:33 PM 46.4 °F 44.3 °F 44.6 °F 93% 30.04 in - SW 4.6 mph - N/A   Drizzle
2:36 PM 46.4 °F 44.3 °F 44.6 °F 93% 30.04 in - SW 4.6 mph - N/A   Light Drizzle
2:41 PM 46.4 °F 44.3 °F 44.6 °F 93% 30.04 in 3.7 mi WSW 4.6 mph - N/A   Mostly Cloudy
2:45 PM 46.4 °F 44.3 °F 44.6 °F 93% 30.04 in 3.1 mi WSW 4.6 mph - N/A   Mostly Cloudy
2:55 PM 46.4 °F 44.3 °F 44.6 °F 93% 30.04 in 3.7 mi WSW 4.6 mph - N/A Rain Light Rain
3:00 PM 46.4 °F 44.3 °F 44.6 °F 93% 30.04 in 3.7 mi WSW 4.6 mph - N/A Rain Light Rain
3:08 PM 46.4 °F 45.2 °F 46.4 °F 100% 30.04 in 5.0 mi WSW 3.5 mph - N/A   Light Drizzle
3:09 PM 46.4 °F 44.3 °F 46.4 °F 100% 30.04 in 4.3 mi West 4.6 mph - N/A   Drizzle
3:25 PM 46.4 °F 42.9 °F 44.6 °F 93% 30.04 in 5.6 mi WNW 6.9 mph - N/A Rain Light Rain Showers
3:38 PM 46.4 °F 42.4 °F 44.6 °F 93% 30.04 in 6.2 mi WNW 8.1 mph - N/A Rain Light Rain
3:55 PM 46.4 °F 44.3 °F 44.6 °F 93% 30.04 in 6.2 mi West 4.6 mph - N/A   Mostly Cloudy
3:59 PM 46.4 °F 44.3 °F 44.6 °F 93% 30.04 in 6.2 mi West 4.6 mph - N/A   Mostly Cloudy
4:16 PM 46.4 °F 45.2 °F 46.4 °F 100% 30.04 in 6.2 mi WSW 3.5 mph - N/A Rain Light Rain
4:25 PM 46.4 °F 44.3 °F 44.6 °F 93% 30.04 in 3.7 mi West 4.6 mph - N/A Rain Rain Showers
4:41 PM 46.4 °F 40.7 °F 42.8 °F 87% 30.04 in 6.2 mi WNW 12.7 mph - N/A Rain Rain Showers
4:45 PM 46.4 °F 41.5 °F 42.8 °F 87% 30.04 in 6.2 mi WNW 10.4 mph - N/A Rain Light Rain Showers
4:55 PM 46.4 °F 42.9 °F 42.8 °F 87% 30.04 in 6.2 mi NW 6.9 mph - N/A   Mostly Cloudy
5:00 PM 44.6 °F 40.7 °F 42.8 °F 93% 30.04 in 6.2 mi WNW 6.9 mph - N/A   Overcast
5:25 PM 42.8 °F 39.3 °F 42.8 °F 100% 30.06 in 6.2 mi WNW 5.8 mph - N/A   Overcast
5:42 PM 42.8 °F 38.6 °F 42.8 °F 100% 30.06 in 6.2 mi WNW 6.9 mph - N/A   Mostly Cloudy
5:55 PM 44.6 °F 40.2 °F 42.8 °F 93% 30.06 in 6.2 mi WNW 8.1 mph - N/A   Mostly Cloudy
6:09 PM 44.6 °F 39.7 °F 42.8 °F 93% 30.06 in 3.1 mi WNW 9.2 mph - N/A   Mostly Cloudy
6:13 PM 46.4 °F 41.5 °F 44.6 °F 93% 30.06 in 6.2 mi NW 10.4 mph - N/A   Heavy Drizzle
6:20 PM 46.4 °F 41.9 °F 44.6 °F 93% 30.06 in 6.2 mi NW 9.2 mph - N/A Rain Light Rain
6:25 PM 46.4 °F 41.9 °F 44.6 °F 93% 30.06 in 6.2 mi NW 9.2 mph - N/A Rain Light Rain
6:32 PM 46.4 °F 42.4 °F 44.6 °F 93% 30.06 in 6.2 mi NW 8.1 mph - N/A   Mostly Cloudy
6:55 PM 46.4 °F 42.4 °F 44.6 °F 93% 30.09 in 5.6 mi NW 8.1 mph - N/A Rain Light Rain
7:07 PM 46.4 °F 41.9 °F 44.6 °F 93% 30.09 in 6.2 mi NW 9.2 mph - N/A Rain Light Rain Showers
7:25 PM 46.4 °F 42.4 °F 44.6 °F 93% 30.09 in 6.2 mi NNW 8.1 mph - N/A   Mostly Cloudy
7:40 PM 46.4 °F 42.4 °F 44.6 °F 93% 30.09 in 6.2 mi NNW 8.1 mph - N/A   Mostly Cloudy
7:55 PM 46.4 °F 42.4 °F 44.6 °F 93% 30.09 in 6.2 mi NNW 8.1 mph - N/A   Overcast
8:20 PM 46.4 °F 41.9 °F 44.6 °F 93% 30.12 in 6.2 mi NNW 9.2 mph - N/A   Overcast
8:25 PM 46.4 °F 41.9 °F 44.6 °F 93% 30.12 in 6.2 mi NNW 9.2 mph - N/A Rain Light Rain
8:30 PM 46.4 °F 41.9 °F 44.6 °F 93% 30.12 in 6.2 mi NNW 9.2 mph - N/A Rain Light Rain
8:38 PM 46.4 °F 41.9 °F 44.6 °F 93% 30.12 in 3.7 mi NNW 9.2 mph - N/A Rain Light Rain
8:55 PM 46.4 °F 41.9 °F 44.6 °F 93% 30.12 in 6.2 mi NNW 9.2 mph - N/A Rain Light Rain
9:11 PM 46.4 °F 42.4 °F 44.6 °F 93% 30.15 in 6.2 mi NNW 8.1 mph - N/A   Light Drizzle
9:20 PM 46.4 °F 42.4 °F 44.6 °F 93% 30.15 in 6.2 mi NNW 8.1 mph - N/A   Mostly Cloudy
9:25 PM 46.4 °F 42.4 °F 44.6 °F 93% 30.15 in 6.2 mi NNW 8.1 mph - N/A   Mostly Cloudy
9:35 PM 46.4 °F 42.4 °F 44.6 °F 93% 30.15 in 6.2 mi NNW 8.1 mph - N/A   Overcast
9:55 PM 46.4 °F 42.4 °F 44.6 °F 93% 30.15 in 6.2 mi NW 8.1 mph - N/A   Mostly Cloudy
10:25 PM 46.4 °F 42.9 °F 44.6 °F 93% 30.15 in 6.2 mi NNW 6.9 mph - N/A   Mostly Cloudy
10:27 PM 46.4 °F 42.9 °F 44.6 °F 93% 30.15 in 6.2 mi NNW 6.9 mph - N/A   Mostly Cloudy
10:30 PM 46.4 °F 42.9 °F 44.6 °F 93% 30.15 in 6.2 mi NNW 6.9 mph - N/A   Mostly Cloudy
10:39 PM 46.4 °F 42.9 °F 44.6 °F 93% 30.15 in 6.2 mi NW 6.9 mph - N/A   Mostly Cloudy
10:55 PM 46.4 °F 43.5 °F 44.6 °F 93% 30.18 in 6.2 mi NW 5.8 mph - N/A   Overcast
11:18 PM 46.4 °F 42.9 °F 42.8 °F 87% 30.18 in 6.2 mi NW 6.9 mph - N/A   Overcast
11:25 PM 46.4 °F 41.9 °F 42.8 °F 87% 30.18 in 6.2 mi NNW 9.2 mph - N/A   Overcast
11:29 PM 46.4 °F 41.9 °F 42.8 °F 87% 30.18 in 6.2 mi NNW 9.2 mph - N/A   Mostly Cloudy
11:55 PM 46.4 °F 42.4 °F 42.8 °F 87% 30.18 in 6.2 mi NNW 8.1 mph - N/A   Overcast